Time;durP1;ratioP1;P1;durP2;ratioP2;P2;SDS_P1;SDS_P2;PMS_P1;PMS_P2;Temp;Humidity;BMP_temperature;BMP_pressure;BME280_temperature;BME280_humidity;BME280_pressure;Samples;Min_cycle;Max_cycle;Signal;HPM_P1;HPM_P2
2024/01/08 00:00:56;;;;;;;1.33;1.10;;;-1.70;99.90;;;;;;5017512;28;20064;-64
2024/01/08 00:03:21;;;;;;;1.33;1.20;;;-1.70;99.90;;;;;;5035511;28;20060;-63
2024/01/08 00:05:48;;;;;;;1.52;1.40;;;-1.80;99.90;;;;;;5017313;28;20048;-63
2024/01/08 00:08:14;;;;;;;1.23;1.13;;;-1.90;99.90;;;;;;5035158;28;20034;-64
2024/01/08 00:10:40;;;;;;;1.75;1.33;;;-2.00;99.90;;;;;;5035123;28;20068;-63
2024/01/08 00:13:06;;;;;;;1.30;1.20;;;-2.00;99.90;;;;;;5035338;28;20080;-58
2024/01/08 00:15:32;;;;;;;1.27;1.17;;;-2.00;99.90;;;;;;5035140;28;20034;-59
2024/01/08 00:18:04;;;;;;;1.85;1.20;;;-2.10;99.90;;;;;;5016664;28;20068;-59
2024/01/08 00:20:30;;;;;;;1.40;1.30;;;-2.10;99.90;;;;;;5034973;28;20568;-58
2024/01/08 00:22:55;;;;;;;1.52;1.40;;;-2.10;99.90;;;;;;5016458;28;20076;-65
2024/01/08 00:25:21;;;;;;;1.52;1.35;;;-2.20;99.90;;;;;;5017198;28;20037;-67
2024/01/08 00:27:49;;;;;;;1.23;1.13;;;-2.20;99.90;;;;;;5016896;28;20041;-67
2024/01/08 00:30:16;;;;;;;1.25;1.10;;;-2.20;99.90;;;;;;5000427;28;20048;-67
2024/01/08 00:32:41;;;;;;;1.30;1.20;;;-2.20;99.90;;;;;;5000439;28;20072;-67
2024/01/08 00:35:07;;;;;;;1.17;1.08;;;-2.20;99.90;;;;;;5034539;28;20037;-66
2024/01/08 00:37:44;;;;;;;1.30;1.20;;;-2.30;99.90;;;;;;5034717;28;20503;-67
2024/01/08 00:40:10;;;;;;;1.40;1.30;;;-2.30;99.90;;;;;;5016577;28;20408;-67
2024/01/08 00:42:37;;;;;;;1.65;1.55;;;-2.30;99.90;;;;;;5034235;28;20049;-66
2024/01/08 00:45:04;;;;;;;1.25;1.15;;;-2.30;99.90;;;;;;5034253;28;20045;-68
2024/01/08 00:47:29;;;;;;;1.48;1.38;;;-2.30;99.90;;;;;;5016474;28;20513;-67
2024/01/08 00:49:55;;;;;;;2.08;1.60;;;-2.30;99.90;;;;;;5034423;28;20041;-67
2024/01/08 00:52:21;;;;;;;1.48;1.38;;;-2.30;99.90;;;;;;5016737;28;20044;-67
2024/01/08 00:54:47;;;;;;;1.50;1.40;;;-2.30;99.90;;;;;;5034324;28;20043;-67
2024/01/08 00:57:13;;;;;;;1.42;1.33;;;-2.20;99.90;;;;;;5016196;28;20037;-67
2024/01/08 00:59:38;;;;;;;1.60;1.50;;;-2.20;99.90;;;;;;5016187;28;20124;-67
2024/01/08 01:02:04;;;;;;;1.45;1.30;;;-2.10;99.90;;;;;;5016262;28;20099;-67
2024/01/08 01:04:30;;;;;;;1.70;1.38;;;-2.00;99.90;;;;;;5034194;28;20084;-67
2024/01/08 01:06:55;;;;;;;1.33;1.23;;;-2.00;99.90;;;;;;5016058;28;20053;-66
2024/01/08 01:09:21;;;;;;;1.70;1.60;;;-2.00;99.90;;;;;;5016123;28;20416;-67
2024/01/08 01:11:47;;;;;;;1.23;1.13;;;-1.80;99.90;;;;;;5016301;28;20393;-68
2024/01/08 01:14:12;;;;;;;1.20;1.10;;;-1.80;99.90;;;;;;5033743;28;20037;-67
2024/01/08 01:16:38;;;;;;;1.40;1.30;;;-1.80;99.90;;;;;;5033536;28;20053;-67
2024/01/08 01:19:10;;;;;;;1.40;1.30;;;-1.70;99.90;;;;;;5033626;28;20057;-67
2024/01/08 01:21:36;;;;;;;2.17;1.60;;;-1.70;99.90;;;;;;5033914;28;20042;-67
2024/01/08 01:24:04;;;;;;;1.50;1.40;;;-1.70;99.90;;;;;;5015954;28;20436;-65
2024/01/08 01:26:30;;;;;;;1.73;1.33;;;-1.60;99.90;;;;;;5033718;28;20056;-65
2024/01/08 01:28:55;;;;;;;1.73;1.63;;;-1.60;99.90;;;;;;5015762;28;20465;-64
2024/01/08 01:31:21;;;;;;;1.50;1.40;;;-1.60;99.90;;;;;;5033682;28;20044;-65
2024/01/08 01:33:47;;;;;;;1.48;1.38;;;-1.50;99.90;;;;;;5015181;28;20390;-65
2024/01/08 01:36:12;;;;;;;1.42;1.33;;;-1.50;99.90;;;;;;5033387;28;20100;-65
2024/01/08 01:38:38;;;;;;;1.60;1.50;;;-1.50;99.90;;;;;;5033570;28;20042;-65
2024/01/08 01:41:04;;;;;;;1.60;1.50;;;-1.40;99.90;;;;;;5015578;28;20466;-65
2024/01/08 01:43:29;;;;;;;1.70;1.52;;;-1.40;99.90;;;;;;5033244;28;20041;-65
2024/01/08 01:46:00;;;;;;;1.42;1.33;;;-1.40;99.90;;;;;;5033482;28;20033;-65
2024/01/08 01:48:27;;;;;;;1.30;1.20;;;-1.40;99.90;;;;;;5033341;28;20042;-65
2024/01/08 01:50:53;;;;;;;1.80;1.50;;;-1.40;99.90;;;;;;5033339;28;20389;-65
2024/01/08 01:53:19;;;;;;;1.40;1.30;;;-1.30;99.90;;;;;;5015332;28;20053;-65
2024/01/08 01:55:46;;;;;;;1.73;1.63;;;-1.30;99.90;;;;;;5033044;28;20409;-65
2024/01/08 01:58:14;;;;;;;1.13;1.13;;;-1.30;99.90;;;;;;5032957;28;20049;-65
2024/01/08 02:00:41;;;;;;;1.52;1.40;;;-1.30;99.90;;;;;;5015371;28;20409;-65
2024/01/08 02:03:07;;;;;;;1.30;1.20;;;-1.30;99.90;;;;;;5015162;28;20142;-65
2024/01/08 02:05:34;;;;;;;1.40;1.30;;;-1.20;99.90;;;;;;5033088;28;20397;-65
2024/01/08 02:08:00;;;;;;;1.80;1.55;;;-1.20;99.90;;;;;;5033131;28;20068;-65
2024/01/08 02:10:26;;;;;;;1.45;1.35;;;-1.20;99.90;;;;;;5033119;28;20091;-65
2024/01/08 02:12:52;;;;;;;1.55;1.45;;;-1.20;99.90;;;;;;5015129;28;20037;-65
2024/01/08 02:15:18;;;;;;;1.10;1.00;;;-1.20;99.90;;;;;;5033082;28;20393;-65
2024/01/08 02:17:56;;;;;;;1.40;1.30;;;-1.10;99.90;;;;;;5032473;28;20068;-65
2024/01/08 02:20:29;;;;;;;2.28;1.52;;;-1.20;99.90;;;;;;5032950;28;20042;-65
2024/01/08 02:22:54;;;;;;;1.50;1.40;;;-1.10;99.90;;;;;;5014960;28;20048;-65
2024/01/08 02:25:20;;;;;;;2.40;1.70;;;-1.10;99.90;;;;;;5014991;28;20049;-65
2024/01/08 02:27:46;;;;;;;2.53;1.67;;;-1.10;99.90;;;;;;5032625;28;20072;-65
2024/01/08 02:30:11;;;;;;;1.63;1.52;;;-1.10;99.90;;;;;;5032666;28;20076;-65
2024/01/08 02:32:37;;;;;;;1.52;1.42;;;-1.10;99.90;;;;;;5032928;28;20048;-65
2024/01/08 02:35:03;;;;;;;1.75;1.60;;;-1.00;99.90;;;;;;5033045;28;20401;-67
2024/01/08 02:37:29;;;;;;;1.83;1.67;;;-1.00;99.90;;;;;;5014915;28;20045;-67
2024/01/08 02:39:54;;;;;;;1.58;1.48;;;-1.00;99.90;;;;;;5014913;28;20048;-67
2024/01/08 02:42:20;;;;;;;1.40;1.30;;;-1.00;99.90;;;;;;5015150;28;20081;-67
2024/01/08 02:44:46;;;;;;;1.90;1.73;;;-0.90;99.90;;;;;;5014816;28;20080;-68
2024/01/08 02:47:12;;;;;;;1.25;1.15;;;-0.90;99.90;;;;;;5035978;28;20076;-58
2024/01/08 02:49:37;;;;;;;1.58;1.48;;;-0.90;99.90;;;;;;5019006;28;20080;-59
2024/01/08 02:52:03;;;;;;;1.95;1.58;;;-0.90;99.90;;;;;;5036357;28;20061;-59
2024/01/08 02:54:29;;;;;;;1.67;1.52;;;-0.90;99.90;;;;;;5036538;28;20030;-58
2024/01/08 02:56:54;;;;;;;1.50;1.40;;;-0.90;99.90;;;;;;5018864;28;20543;-59
2024/01/08 02:59:20;;;;;;;1.75;1.60;;;-0.90;99.90;;;;;;5018609;28;20076;-59
2024/01/08 03:01:45;;;;;;;1.70;1.60;;;-0.90;99.90;;;;;;5018832;28;20073;-59
2024/01/08 03:04:12;;;;;;;1.75;1.65;;;-0.90;99.90;;;;;;5036118;28;20037;-58
2024/01/08 03:06:37;;;;;;;1.95;1.63;;;-0.90;99.90;;;;;;5018375;28;20063;-58
2024/01/08 03:09:03;;;;;;;1.50;1.40;;;-0.90;99.90;;;;;;5018609;28;20046;-58
2024/01/08 03:11:29;;;;;;;1.48;1.38;;;-0.90;99.90;;;;;;5018392;28;20096;-58
2024/01/08 03:13:54;;;;;;;1.55;1.42;;;-0.90;99.90;;;;;;5018512;28;20432;-58
2024/01/08 03:16:33;;;;;;;1.70;1.48;;;-0.90;99.90;;;;;;5035780;28;20041;-59
2024/01/08 03:19:05;;;;;;;1.90;1.70;;;-0.80;99.90;;;;;;5036160;28;20047;-58
2024/01/08 03:21:31;;;;;;;1.58;1.48;;;-0.90;99.90;;;;;;5036108;28;20435;-60
2024/01/08 03:23:57;;;;;;;1.40;1.30;;;-0.90;99.90;;;;;;5018369;28;20049;-58
2024/01/08 03:26:22;;;;;;;1.60;1.50;;;-0.90;99.90;;;;;;5017965;28;20040;-59
2024/01/08 03:28:48;;;;;;;1.48;1.38;;;-0.90;99.90;;;;;;5035975;28;20392;-58
2024/01/08 03:31:13;;;;;;;1.33;1.23;;;-0.90;99.90;;;;;;5035641;28;20034;-58
2024/01/08 03:33:39;;;;;;;1.48;1.38;;;-0.80;99.90;;;;;;5035960;28;20040;-59
2024/01/08 03:36:09;;;;;;;1.75;1.65;;;-0.90;99.90;;;;;;5035899;28;20501;-59
2024/01/08 03:38:35;;;;;;;1.30;1.20;;;-0.90;99.90;;;;;;5035830;28;20163;-58
2024/01/08 03:41:01;;;;;;;1.38;1.27;;;-0.80;99.90;;;;;;5035745;28;20493;-58
2024/01/08 03:43:26;;;;;;;1.50;1.40;;;-0.90;99.90;;;;;;5035765;28;20124;-58
2024/01/08 03:45:52;;;;;;;1.55;1.38;;;-0.80;99.90;;;;;;5035768;28;20045;-65
2024/01/08 03:48:17;;;;;;;2.22;1.80;;;-0.80;99.90;;;;;;5035240;28;20499;-65
2024/01/08 03:50:43;;;;;;;1.95;1.60;;;-0.80;99.90;;;;;;5017552;28;20049;-64
2024/01/08 03:53:08;;;;;;;1.48;1.38;;;-0.90;99.90;;;;;;5001269;28;20048;-64
2024/01/08 03:55:34;;;;;;;1.67;1.50;;;-0.90;99.90;;;;;;5035273;28;20508;-64
2024/01/08 03:58:00;;;;;;;1.45;1.33;;;-0.90;99.90;;;;;;5016631;28;20041;-67
2024/01/08 04:00:25;;;;;;;1.50;1.40;;;-0.90;99.90;;;;;;5017426;28;20049;-67
2024/01/08 04:02:51;;;;;;;1.60;1.50;;;-1.00;99.90;;;;;;5017370;28;20128;-66
2024/01/08 04:05:17;;;;;;;1.50;1.40;;;-0.90;99.90;;;;;;5017273;28;20477;-67
2024/01/08 04:07:42;;;;;;;2.20;1.70;;;-0.90;99.90;;;;;;5001013;28;20045;-68
2024/01/08 04:10:08;;;;;;;1.92;1.73;;;-1.00;99.90;;;;;;5017227;28;20042;-66
2024/01/08 04:12:34;;;;;;;1.75;1.60;;;-1.00;99.90;;;;;;5035180;28;20424;-67
2024/01/08 04:14:59;;;;;;;1.50;1.30;;;-1.10;99.90;;;;;;5034925;28;20091;-67
2024/01/08 04:17:38;;;;;;;1.52;1.40;;;-1.10;99.90;;;;;;5016628;28;20141;-67
2024/01/08 04:20:11;;;;;;;1.50;1.40;;;-1.20;99.90;;;;;;5017288;28;20140;-67
2024/01/08 04:22:36;;;;;;;1.60;1.50;;;-1.20;99.90;;;;;;5035027;28;20120;-67
2024/01/08 04:25:02;;;;;;;1.40;1.30;;;-1.20;99.90;;;;;;5016972;28;20179;-66
2024/01/08 04:27:28;;;;;;;1.52;1.40;;;-1.20;99.90;;;;;;5033415;28;20046;-67
2024/01/08 04:29:54;;;;;;;1.55;1.45;;;-1.20;99.90;;;;;;5016806;28;20034;-67
2024/01/08 04:32:19;;;;;;;1.30;1.20;;;-1.20;99.90;;;;;;5017043;28;20120;-67
2024/01/08 04:34:45;;;;;;;1.50;1.40;;;-1.20;99.90;;;;;;5000426;28;20041;-67
2024/01/08 04:37:10;;;;;;;1.30;1.20;;;-1.20;99.90;;;;;;5034682;28;20044;-67
2024/01/08 04:39:36;;;;;;;1.40;1.30;;;-1.20;99.90;;;;;;5016861;28;20516;-67
2024/01/08 04:42:03;;;;;;;1.40;1.30;;;-1.20;99.90;;;;;;5016899;28;20045;-66
2024/01/08 04:44:32;;;;;;;1.30;1.20;;;-1.20;99.90;;;;;;5016568;28;20064;-66
2024/01/08 04:46:58;;;;;;;1.40;1.30;;;-1.20;99.90;;;;;;5016419;28;20045;-66
2024/01/08 04:49:23;;;;;;;1.50;1.20;;;-1.20;99.90;;;;;;5034216;28;20125;-66
2024/01/08 04:51:50;;;;;;;1.42;1.33;;;-1.30;99.90;;;;;;5034502;28;20037;-68
2024/01/08 04:54:16;;;;;;;1.02;0.93;;;-1.20;99.90;;;;;;5034004;28;20124;-66
2024/01/08 04:56:41;;;;;;;1.10;1.00;;;-1.30;99.90;;;;;;5034352;28;20060;-58
2024/01/08 04:59:07;;;;;;;1.17;1.08;;;-1.30;99.90;;;;;;5016554;28;20124;-58
2024/01/08 05:01:37;;;;;;;1.20;1.10;;;-1.40;99.90;;;;;;5033978;28;20076;-58
2024/01/08 05:04:03;;;;;;;1.23;1.10;;;-1.40;99.90;;;;;;5034225;28;20059;-58
2024/01/08 05:06:29;;;;;;;1.33;1.05;;;-1.40;99.90;;;;;;5016247;28;20060;-65
2024/01/08 05:08:54;;;;;;;1.35;1.10;;;-1.50;99.90;;;;;;5033663;28;20046;-64
2024/01/08 05:11:20;;;;;;;1.08;0.98;;;-1.50;99.90;;;;;;5033765;28;20049;-65
2024/01/08 05:13:46;;;;;;;2.72;1.20;;;-1.40;99.90;;;;;;5034059;28;20034;-65
2024/01/08 05:16:11;;;;;;;1.00;0.90;;;-1.40;99.90;;;;;;5033670;28;20400;-64
2024/01/08 05:18:43;;;;;;;1.30;1.20;;;-1.50;99.90;;;;;;5033312;28;20551;-64
2024/01/08 05:21:13;;;;;;;1.17;1.05;;;-1.50;99.90;;;;;;5015980;28;20120;-65
2024/01/08 05:23:39;;;;;;;0.98;0.75;;;-1.50;99.90;;;;;;5033539;28;20037;-64
2024/01/08 05:26:05;;;;;;;1.20;1.10;;;-1.50;99.90;;;;;;5033754;28;20033;-64
2024/01/08 05:28:30;;;;;;;1.30;1.20;;;-1.60;99.90;;;;;;5033416;28;20448;-64
2024/01/08 05:30:56;;;;;;;1.30;1.20;;;-1.60;99.90;;;;;;5033848;28;20517;-64
2024/01/08 05:33:22;;;;;;;1.30;1.17;;;-1.60;99.90;;;;;;5033577;28;20096;-65
2024/01/08 05:35:48;;;;;;;1.35;1.20;;;-1.60;99.90;;;;;;5033624;28;20040;-64
2024/01/08 05:38:14;;;;;;;1.30;1.20;;;-1.60;99.90;;;;;;5033562;28;20124;-65
2024/01/08 05:40:40;;;;;;;1.50;1.40;;;-1.60;99.90;;;;;;5015454;28;20048;-65
2024/01/08 05:43:05;;;;;;;1.40;1.30;;;-1.50;99.90;;;;;;5033503;28;20111;-64
2024/01/08 05:45:31;;;;;;;1.23;1.13;;;-1.60;99.90;;;;;;5033436;28;20045;-64
2024/01/08 05:47:57;;;;;;;1.42;1.33;;;-1.50;99.90;;;;;;5033290;28;20044;-65
2024/01/08 05:50:27;;;;;;;1.60;1.35;;;-1.50;99.90;;;;;;4999210;28;20045;-64
2024/01/08 05:52:54;;;;;;;1.30;1.20;;;-1.50;99.90;;;;;;5033328;28;20091;-64
2024/01/08 05:55:20;;;;;;;1.33;1.23;;;-1.50;99.90;;;;;;5032954;28;20041;-64
2024/01/08 05:57:46;;;;;;;1.27;1.17;;;-1.50;99.90;;;;;;5032999;28;20077;-64
2024/01/08 06:00:12;;;;;;;1.42;1.10;;;-1.50;99.90;;;;;;5032869;28;20076;-65
2024/01/08 06:02:37;;;;;;;1.52;1.42;;;-1.40;99.90;;;;;;5033249;28;20052;-64
2024/01/08 06:05:03;;;;;;;1.50;1.40;;;-1.40;99.90;;;;;;5032918;28;20033;-66
2024/01/08 06:07:29;;;;;;;1.30;1.20;;;-1.40;99.90;;;;;;5032939;28;20052;-64
2024/01/08 06:09:55;;;;;;;1.40;1.30;;;-1.40;99.90;;;;;;5033138;28;20038;-64
2024/01/08 06:12:20;;;;;;;1.45;1.25;;;-1.30;99.90;;;;;;5032805;28;20062;-64
2024/01/08 06:14:46;;;;;;;1.63;1.30;;;-1.30;99.90;;;;;;5015406;28;20045;-64
2024/01/08 06:17:18;;;;;;;1.40;1.30;;;-1.20;99.90;;;;;;5032364;28;20061;-58
2024/01/08 06:19:44;;;;;;;1.58;1.48;;;-1.30;99.90;;;;;;5032582;28;20382;-64
2024/01/08 06:22:09;;;;;;;2.15;1.25;;;-1.30;99.90;;;;;;5014610;28;20044;-64
2024/01/08 06:24:35;;;;;;;1.25;1.15;;;-1.30;99.90;;;;;;4998715;28;20041;-64
2024/01/08 06:27:00;;;;;;;1.13;1.02;;;-1.30;99.90;;;;;;5032605;28;20128;-63
2024/01/08 06:29:26;;;;;;;1.30;1.20;;;-1.20;99.90;;;;;;5032911;28;20034;-64
2024/01/08 06:31:52;;;;;;;1.35;1.25;;;-1.20;99.90;;;;;;5032923;28;20041;-64
2024/01/08 06:34:18;;;;;;;1.88;1.20;;;-1.20;99.90;;;;;;5032871;28;20117;-64
2024/01/08 06:36:43;;;;;;;1.55;1.42;;;-1.20;99.90;;;;;;5032795;28;20037;-63
2024/01/08 06:39:09;;;;;;;1.90;1.25;;;-1.20;99.90;;;;;;5015158;28;20045;-64
2024/01/08 06:41:36;;;;;;;1.48;1.23;;;-1.20;99.90;;;;;;5032879;28;20124;-64
2024/01/08 06:44:03;;;;;;;1.83;1.20;;;-1.20;99.90;;;;;;5032768;28;20049;-64
2024/01/08 06:46:28;;;;;;;1.23;1.13;;;-1.10;99.90;;;;;;5032744;28;20033;-64
2024/01/08 06:48:54;;;;;;;1.27;1.17;;;-1.10;99.90;;;;;;5032525;28;20042;-64
2024/01/08 06:51:19;;;;;;;1.38;1.27;;;-1.10;99.90;;;;;;5032393;28;20041;-63
2024/01/08 06:53:46;;;;;;;1.70;1.17;;;-1.10;99.90;;;;;;5032369;28;20048;-64
2024/01/08 06:56:12;;;;;;;1.10;1.00;;;-1.10;99.90;;;;;;5032351;28;20070;-64
2024/01/08 06:58:38;;;;;;;1.77;1.45;;;-1.00;99.90;;;;;;5015029;28;20041;-64
2024/01/08 07:01:05;;;;;;;1.45;1.00;;;-0.90;99.90;;;;;;5032367;28;20095;-64
2024/01/08 07:03:34;;;;;;;1.13;1.00;;;-1.10;99.90;;;;;;5032492;28;20095;-63
2024/01/08 07:06:01;;;;;;;1.42;1.33;;;-1.10;99.90;;;;;;5032591;28;20049;-63
2024/01/08 07:08:27;;;;;;;1.23;1.13;;;-1.10;99.90;;;;;;5032159;28;20091;-64
2024/01/08 07:10:52;;;;;;;1.30;1.17;;;-1.00;99.90;;;;;;5014560;28;20037;-65
2024/01/08 07:13:18;;;;;;;1.45;1.30;;;-1.00;99.90;;;;;;5032244;28;20037;-64
2024/01/08 07:15:48;;;;;;;1.25;1.15;;;-1.00;99.90;;;;;;5032416;28;20045;-64
2024/01/08 07:18:15;;;;;;;2.63;1.20;;;-1.00;99.90;;;;;;5032140;28;20084;-64
2024/01/08 07:20:47;;;;;;;1.55;1.27;;;-1.00;99.90;;;;;;5032119;28;20132;-65
2024/01/08 07:23:13;;;;;;;1.25;1.10;;;-1.00;99.90;;;;;;4998109;28;20076;-65
2024/01/08 07:25:40;;;;;;;1.58;1.38;;;-1.00;99.90;;;;;;5014475;28;20504;-64
2024/01/08 07:28:07;;;;;;;1.42;1.30;;;-1.00;99.90;;;;;;5014415;28;20489;-64
2024/01/08 07:30:33;;;;;;;1.13;1.02;;;-1.00;99.90;;;;;;5014516;28;20048;-63
2024/01/08 07:32:59;;;;;;;1.80;1.30;;;-1.00;99.90;;;;;;5015649;28;20112;-65
2024/01/08 07:35:25;;;;;;;3.17;1.30;;;-1.00;99.90;;;;;;5018134;28;20042;-64
2024/01/08 07:37:55;;;;;;;1.13;1.02;;;-0.90;99.90;;;;;;5035623;28;20129;-64
2024/01/08 07:40:25;;;;;;;1.23;1.13;;;-0.90;99.90;;;;;;5035671;28;20124;-64
2024/01/08 07:42:54;;;;;;;1.38;1.15;;;-0.90;99.90;;;;;;5035596;28;20128;-64
2024/01/08 07:45:25;;;;;;;1.98;0.82;;;-0.90;99.90;;;;;;5017597;28;20149;-64
2024/01/08 07:47:51;;;;;;;1.20;1.10;;;-0.90;99.90;;;;;;5016911;28;20460;-64
2024/01/08 07:50:17;;;;;;;1.23;1.13;;;-0.90;99.90;;;;;;5034353;28;20087;-65
2024/01/08 07:52:43;;;;;;;1.42;1.20;;;-0.90;99.90;;;;;;5034678;28;20034;-65
2024/01/08 07:55:09;;;;;;;1.30;1.20;;;-0.80;99.90;;;;;;5034656;28;20064;-64
2024/01/08 07:57:35;;;;;;;1.42;1.33;;;-0.90;99.90;;;;;;5016529;28;20049;-64
2024/01/08 08:00:01;;;;;;;1.27;1.10;;;-0.90;99.90;;;;;;5034432;28;20046;-64
2024/01/08 08:02:27;;;;;;;1.08;1.00;;;-0.80;99.90;;;;;;5034541;28;20044;-65
2024/01/08 08:04:53;;;;;;;1.50;1.17;;;-0.80;99.90;;;;;;5034397;28;20033;-66
2024/01/08 08:07:19;;;;;;;1.40;1.30;;;-0.80;99.90;;;;;;5034336;28;20073;-66
2024/01/08 08:09:45;;;;;;;2.10;1.40;;;-0.80;99.90;;;;;;5016643;28;20045;-65
2024/01/08 08:12:11;;;;;;;1.38;1.20;;;-0.80;99.90;;;;;;5034252;28;20034;-66
2024/01/08 08:14:37;;;;;;;1.85;1.20;;;-0.80;99.90;;;;;;5034052;28;20421;-65
2024/01/08 08:17:16;;;;;;;1.40;1.30;;;-0.80;99.90;;;;;;5033749;28;20045;-65
2024/01/08 08:19:48;;;;;;;1.95;1.30;;;-0.70;99.90;;;;;;5016004;28;20046;-68
2024/01/08 08:22:14;;;;;;;1.70;1.60;;;-0.70;99.90;;;;;;5016291;28;20477;-68
2024/01/08 08:24:41;;;;;;;1.10;1.00;;;-0.70;99.90;;;;;;5034106;28;20049;-67
2024/01/08 08:27:11;;;;;;;1.73;1.30;;;-0.70;99.90;;;;;;5033949;28;20094;-67
2024/01/08 08:29:44;;;;;;;1.48;1.38;;;-0.60;99.90;;;;;;5016125;28;20409;-65
2024/01/08 08:32:10;;;;;;;1.20;1.10;;;-0.60;99.90;;;;;;5033997;28;20484;-65
2024/01/08 08:34:36;;;;;;;1.38;1.27;;;-0.60;99.90;;;;;;5033994;28;20041;-65
2024/01/08 08:37:01;;;;;;;1.55;1.45;;;-0.60;99.90;;;;;;5033837;28;20055;-64
2024/01/08 08:39:27;;;;;;;1.30;1.17;;;-0.60;99.90;;;;;;5033814;28;20481;-65
2024/01/08 08:41:55;;;;;;;1.98;1.17;;;-0.60;99.90;;;;;;5033797;28;20069;-65
2024/01/08 08:44:21;;;;;;;1.27;1.17;;;-0.60;99.90;;;;;;5033155;28;20401;-64
2024/01/08 08:46:47;;;;;;;1.25;1.15;;;-0.60;99.90;;;;;;5033527;28;20049;-65
2024/01/08 08:49:13;;;;;;;1.48;1.38;;;-0.60;99.90;;;;;;5033309;28;20041;-64
2024/01/08 08:51:40;;;;;;;1.10;1.00;;;-0.60;99.90;;;;;;5033430;28;20033;-65
2024/01/08 08:54:06;;;;;;;1.00;0.90;;;-0.60;99.90;;;;;;5033343;28;20048;-65
2024/01/08 08:56:34;;;;;;;1.95;1.10;;;-0.40;99.90;;;;;;5015510;28;20500;-65
2024/01/08 08:59:00;;;;;;;1.27;1.08;;;-0.60;99.90;;;;;;5033449;28;20045;-64
2024/01/08 09:01:27;;;;;;;1.00;0.90;;;-0.50;99.90;;;;;;5033438;28;20362;-65
2024/01/08 09:03:53;;;;;;;1.08;1.00;;;-0.50;99.90;;;;;;5033247;28;20079;-65
2024/01/08 09:06:27;;;;;;;1.63;1.42;;;-0.50;99.90;;;;;;5015456;28;20087;-64
2024/01/08 09:08:57;;;;;;;1.48;1.05;;;-0.50;99.90;;;;;;5033255;28;20505;-65
2024/01/08 09:11:23;;;;;;;1.30;1.20;;;-0.60;99.90;;;;;;5015173;28;20116;-65
2024/01/08 09:13:49;;;;;;;1.20;1.10;;;-0.60;99.90;;;;;;5015270;28;20128;-65
2024/01/08 09:16:15;;;;;;;1.33;1.15;;;-0.60;99.90;;;;;;5033142;28;20405;-65
2024/01/08 09:18:54;;;;;;;1.40;1.30;;;-0.70;99.90;;;;;;5032468;28;20525;-66
2024/01/08 09:21:26;;;;;;;1.23;1.13;;;-0.70;99.90;;;;;;5032685;28;20133;-64
2024/01/08 09:23:52;;;;;;;1.45;1.20;;;-0.70;99.90;;;;;;5033203;28;20120;-64
2024/01/08 09:26:18;;;;;;;0.95;0.90;;;-0.70;99.90;;;;;;5014990;28;20559;-64
2024/01/08 09:28:45;;;;;;;1.10;1.00;;;-0.80;99.90;;;;;;5014994;28;20054;-59
2024/01/08 09:31:10;;;;;;;1.10;1.00;;;-0.80;99.90;;;;;;5015016;28;20505;-59
2024/01/08 09:33:37;;;;;;;1.90;1.38;;;-0.80;99.90;;;;;;5032872;28;20052;-59
2024/01/08 09:36:03;;;;;;;1.58;0.95;;;-0.80;99.90;;;;;;5014898;28;20132;-59
2024/01/08 09:38:28;;;;;;;1.05;0.95;;;-0.70;99.90;;;;;;5015130;28;20473;-59
2024/01/08 09:40:55;;;;;;;1.10;1.00;;;-0.60;99.90;;;;;;5032742;28;20049;-59
2024/01/08 09:43:20;;;;;;;1.00;1.00;;;-0.50;99.90;;;;;;4998262;28;20056;-59
2024/01/08 09:46:09;;;;;;;1.20;1.10;;;-0.50;99.90;;;;;;5032307;28;20481;-59
2024/01/08 09:48:35;;;;;;;1.98;1.08;;;-0.40;99.90;;;;;;5032392;28;20092;-61
2024/01/08 09:51:02;;;;;;;2.03;1.20;;;-0.30;99.90;;;;;;5032477;28;20038;-59
2024/01/08 09:53:30;;;;;;;1.08;0.98;;;-0.20;99.90;;;;;;5014489;28;20037;-59
2024/01/08 09:55:57;;;;;;;1.55;1.15;;;-0.20;99.90;;;;;;5013663;28;20045;-59
2024/01/08 09:58:24;;;;;;;1.60;1.48;;;-0.10;99.90;;;;;;5032383;28;20095;-59
2024/01/08 10:00:50;;;;;;;1.25;1.08;;;-0.10;99.90;;;;;;5014177;28;20056;-59
2024/01/08 10:03:16;;;;;;;3.00;1.33;;;0.00;99.90;;;;;;5014605;28;20037;-60
2024/01/08 10:05:42;;;;;;;1.52;1.20;;;0.00;99.90;;;;;;5014331;28;20101;-60
2024/01/08 10:08:07;;;;;;;1.20;1.08;;;0.10;99.90;;;;;;5032153;28;20041;-60
2024/01/08 10:10:33;;;;;;;1.13;1.00;;;0.10;99.90;;;;;;5032174;28;20397;-59
2024/01/08 10:12:59;;;;;;;2.88;1.00;;;0.10;99.90;;;;;;5031978;28;20044;-59
2024/01/08 10:15:25;;;;;;;1.35;1.25;;;0.20;99.90;;;;;;5014194;28;20049;-61
2024/01/08 10:18:08;;;;;;;1.10;1.05;;;0.20;99.90;;;;;;5031891;28;20112;-59
2024/01/08 10:20:41;;;;;;;1.30;1.20;;;0.20;99.90;;;;;;5014147;28;20061;-61
2024/01/08 10:23:08;;;;;;;1.52;1.05;;;0.20;99.90;;;;;;5032239;28;20520;-59
2024/01/08 10:25:35;;;;;;;0.82;0.82;;;0.20;99.90;;;;;;5031818;28;20056;-59
2024/01/08 10:28:02;;;;;;;1.10;1.00;;;0.20;99.90;;;;;;5032089;28;20539;-59
2024/01/08 10:30:28;;;;;;;1.02;1.00;;;0.30;99.90;;;;;;5031790;28;20092;-58
2024/01/08 10:33:00;;;;;;;1.17;1.08;;;0.30;99.90;;;;;;5032039;28;20034;-59
2024/01/08 10:35:31;;;;;;;0.90;0.80;;;0.30;99.90;;;;;;5014058;28;20414;-59
2024/01/08 10:38:00;;;;;;;1.20;1.10;;;0.30;99.90;;;;;;5031868;28;20098;-68
2024/01/08 10:40:28;;;;;;;1.27;1.10;;;0.30;99.90;;;;;;5014270;28;20046;-69
2024/01/08 10:42:54;;;;;;;1.23;1.13;;;0.30;99.90;;;;;;5031692;28;20052;-69
2024/01/08 10:45:20;;;;;;;0.90;0.90;;;0.30;99.90;;;;;;5013990;28;20204;-69
2024/01/08 10:47:54;;;;;;;1.00;0.90;;;0.30;99.90;;;;;;5013803;28;20103;-67
2024/01/08 10:50:23;;;;;;;0.80;0.77;;;0.30;99.90;;;;;;5031512;28;20045;-64
2024/01/08 10:52:56;;;;;;;1.02;0.85;;;0.30;99.90;;;;;;5031625;28;20112;-65
2024/01/08 10:55:23;;;;;;;1.10;1.00;;;0.30;99.90;;;;;;5031455;28;20038;-64
2024/01/08 10:57:59;;;;;;;1.30;1.20;;;0.30;99.90;;;;;;5031497;28;20041;-65
2024/01/08 11:00:26;;;;;;;1.10;1.00;;;0.30;97.10;;;;;;5013833;28;20741;-65
2024/01/08 11:02:52;;;;;;;1.20;1.00;;;0.30;99.90;;;;;;5031709;28;20098;-64
2024/01/08 11:05:21;;;;;;;1.00;1.00;;;0.40;99.90;;;;;;5013744;28;20091;-65
2024/01/08 11:07:51;;;;;;;1.95;0.95;;;0.40;98.40;;;;;;5033908;28;20048;-65
2024/01/08 11:10:17;;;;;;;1.27;1.00;;;0.40;95.50;;;;;;5035455;28;20037;-62
2024/01/08 11:12:52;;;;;;;1.13;1.02;;;0.40;96.10;;;;;;5035136;28;20486;-64
2024/01/08 11:15:18;;;;;;;1.17;1.08;;;0.40;94.70;;;;;;5035375;28;20448;-63
2024/01/08 11:18:03;;;;;;;0.80;0.80;;;0.40;98.40;;;;;;5016874;28;20149;-63
2024/01/08 11:20:46;;;;;;;1.20;1.10;;;0.50;99.90;;;;;;5035186;28;20045;-61
2024/01/08 11:23:34;;;;;;;0.90;0.90;;;0.50;99.90;;;;;;5035190;28;20044;-62
2024/01/08 11:26:07;;;;;;;0.80;0.80;;;0.40;96.20;;;;;;5000597;28;20049;-63
2024/01/08 11:28:39;;;;;;;0.82;0.82;;;0.50;96.70;;;;;;5034905;28;20045;-64
2024/01/08 11:31:08;;;;;;;1.00;1.00;;;0.50;96.30;;;;;;5035148;28;20049;-64
2024/01/08 11:33:47;;;;;;;1.20;1.10;;;0.50;97.40;;;;;;5035038;28;20053;-64
2024/01/08 11:36:17;;;;;;;0.95;0.93;;;0.50;94.00;;;;;;5016957;28;20057;-64
2024/01/08 11:39:06;;;;;;;1.65;1.10;;;0.60;96.30;;;;;;5034945;28;20049;-64
2024/01/08 11:41:32;;;;;;;1.52;1.02;;;0.60;95.40;;;;;;5034929;28;20052;-64
2024/01/08 11:43:58;;;;;;;1.33;0.88;;;0.60;93.90;;;;;;5034828;28;20041;-64
2024/01/08 11:46:24;;;;;;;0.88;0.88;;;0.70;95.70;;;;;;5034767;28;20485;-64
2024/01/08 11:48:49;;;;;;;0.80;0.80;;;0.70;97.10;;;;;;5034870;28;20470;-59
2024/01/08 11:51:15;;;;;;;1.50;1.05;;;0.70;93.90;;;;;;5034525;28;20033;-58
2024/01/08 11:53:42;;;;;;;1.48;1.25;;;0.80;95.00;;;;;;5016782;28;20051;-59
2024/01/08 11:56:08;;;;;;;0.88;0.88;;;0.80;92.00;;;;;;5033238;28;20048;-58
2024/01/08 11:58:33;;;;;;;0.80;0.80;;;0.80;92.10;;;;;;5017105;28;20049;-64
2024/01/08 12:00:59;;;;;;;1.27;1.02;;;1.80;93.40;;;;;;5034571;28;20119;-64
2024/01/08 12:03:24;;;;;;;1.00;1.00;;;0.70;90.70;;;;;;5034532;28;20048;-64
2024/01/08 12:06:04;;;;;;;0.90;0.90;;;1.10;91.70;;;;;;5016405;28;20045;-64
2024/01/08 12:08:30;;;;;;;1.02;0.93;;;1.60;84.60;;;;;;5016283;28;20057;-64
2024/01/08 12:10:56;;;;;;;0.90;0.90;;;2.00;75.70;;;;;;5032970;28;20037;-65
2024/01/08 12:13:22;;;;;;;1.13;1.02;;;1.40;60.30;;;;;;5033974;28;20044;-64
2024/01/08 12:15:50;;;;;;;1.70;1.40;;;1.30;62.00;;;;;;5034292;28;20037;-64
2024/01/08 12:18:29;;;;;;;1.30;0.95;;;1.00;69.10;;;;;;5015097;28;20058;-64
2024/01/08 12:21:03;;;;;;;1.00;0.90;;;1.60;64.70;;;;;;5016107;28;20132;-64
2024/01/08 12:23:28;;;;;;;1.00;0.90;;;0.80;74.50;;;;;;5034166;28;20037;-64
2024/01/08 12:25:54;;;;;;;0.93;0.90;;;0.80;78.20;;;;;;5033822;28;20120;-64
2024/01/08 12:28:20;;;;;;;1.10;1.00;;;0.70;79.70;;;;;;5033933;28;20045;-64
2024/01/08 12:30:45;;;;;;;0.88;0.88;;;0.60;69.50;;;;;;5033720;28;20113;-64
2024/01/08 12:33:12;;;;;;;0.82;0.82;;;0.50;80.70;;;;;;5033957;28;20045;-64
2024/01/08 12:35:37;;;;;;;0.90;0.90;;;0.50;70.30;;;;;;5033933;28;20095;-64
2024/01/08 12:38:04;;;;;;;1.35;1.00;;;0.60;72.40;;;;;;5033905;28;20537;-64
2024/01/08 12:40:30;;;;;;;1.00;0.82;;;0.60;70.30;;;;;;5033824;28;20477;-64
2024/01/08 12:42:57;;;;;;;0.80;0.80;;;0.70;76.30;;;;;;5033836;28;20072;-63
2024/01/08 12:45:23;;;;;;;1.20;1.10;;;0.90;67.40;;;;;;5033740;28;20404;-63
2024/01/08 12:47:49;;;;;;;0.90;0.90;;;1.20;79.80;;;;;;5015586;28;20049;-64